Time;durP1;ratioP1;P1;durP2;ratioP2;P2;SDS_P1;SDS_P2;PMS_P1;PMS_P2;Temp;Humidity;BMP_temperature;BMP_pressure;BME280_temperature;BME280_humidity;BME280_pressure;Samples;Min_cycle;Max_cycle;Signal;HPM_P1;HPM_P2
2023/12/27 02:11:35;;;;;;;15.30;11.93;;;;;;;2.34;100.00;101757.75;12624347;22;20027;-75
2023/12/27 05:03:37;;;;;;;;;;;;;;;;;;;;;
2023/12/27 05:33:23;;;;;;;;;;;;;;;;;;;;;
2023/12/27 06:56:20;;;;;;;15.30;12.25;;;;;;;2.93;100.00;101920.50;12696677;22;20481;-76
2023/12/27 07:01:17;;;;;;;12.48;11.32;;;;;;;2.98;100.00;101920.63;12697183;23;20028;-74
2023/12/27 07:23:03;;;;;;;19.83;12.03;;;;;;;2.57;100.00;101930.50;12666529;22;20024;-76
2023/12/27 07:34:49;;;;;;;14.68;12.60;;;;;;;2.42;100.00;101920.16;12521756;22;20027;-75
2023/12/27 07:39:45;;;;;;;21.27;12.95;;;;;;;2.35;100.00;101921.34;12697590;23;20024;-76
2023/12/27 07:50:46;;;;;;;23.67;13.70;;;;;;;2.06;100.00;101913.06;12636431;22;20100;-76
2023/12/27 07:55:42;;;;;;;15.55;14.02;;;;;;;2.11;100.00;101899.69;12629511;23;20108;-77
2023/12/27 08:00:39;;;;;;;16.48;13.52;;;;;;;2.01;100.00;101913.75;12644411;23;20024;-77
2023/12/27 09:51:12;;;;;;;15.57;13.60;;;;;;;2.95;100.00;101902.19;12574261;23;20017;-76
2023/12/27 09:56:22;;;;;;;15.40;13.02;;;;;;;3.04;100.00;101895.34;12108718;23;20084;-77
2023/12/27 10:01:23;;;;;;;25.48;14.10;;;;;;;3.08;100.00;101883.00;12565344;23;20020;-76
2023/12/27 10:07:23;;;;;;;20.35;13.70;;;;;;;3.15;100.00;101888.25;12599857;22;20101;-77
2023/12/27 10:19:58;;;;;;;;;;;;;;;;;;;;;
2023/12/27 10:32:28;;;;;;;13.30;11.98;;;;;;;3.20;100.00;101895.66;12390830;23;20473;-78
2023/12/27 10:57:25;;;;;;;12.88;11.38;;;;;;;3.37;100.00;101864.13;12218474;23;20455;-76
2023/12/27 11:02:49;;;;;;;;;;;;;;;3.38;100.00;101858.44;12551066;23;20475;-76
2023/12/27 11:07:46;;;;;;;11.07;10.27;;;;;;;3.36;100.00;101851.63;12579704;23;19994;-77
2023/12/27 11:12:45;;;;;;;14.32;10.82;;;;;;;3.35;100.00;101839.19;12578993;23;20115;-77
2023/12/27 11:17:43;;;;;;;13.43;11.85;;;;;;;3.49;100.00;101829.72;12579370;23;20021;-78
2023/12/27 11:22:42;;;;;;;14.52;11.25;;;;;;;3.59;100.00;101816.38;12579184;23;20060;-77
2023/12/27 11:27:40;;;;;;;14.13;11.68;;;;;;;3.57;100.00;101815.81;12578353;23;20021;-76
2023/12/27 11:32:40;;;;;;;12.95;11.77;;;;;;;3.60;100.00;101817.22;12578972;23;20033;-77
2023/12/27 11:37:40;;;;;;;13.13;11.73;;;;;;;3.68;100.00;101805.16;12553432;23;20025;-75
2023/12/27 11:42:38;;;;;;;12.45;11.18;;;;;;;3.68;100.00;101794.34;12579442;23;20025;-78
2023/12/27 11:47:37;;;;;;;13.32;10.85;;;;;;;3.72;100.00;101781.97;12553605;23;20367;-75
2023/12/27 11:52:42;;;;;;;17.38;10.60;;;;;;;3.71;100.00;101783.03;12578566;23;20447;-78
2023/12/27 11:57:38;;;;;;;12.05;10.73;;;;;;;3.69;100.00;101779.75;12578937;23;20021;-76
2023/12/27 12:02:36;;;;;;;16.85;10.50;;;;;;;3.76;100.00;101775.00;12554813;23;20184;-77
2023/12/27 12:08:25;;;;;;;;;;;;;;;;;;;;;
2023/12/27 12:47:44;;;;;;;13.10;9.35;;;;;;;3.81;100.00;101696.63;12638106;23;20024;-77
2023/12/27 12:52:42;;;;;;;12.82;10.13;;;;;;;3.81;100.00;101685.81;12640785;23;20552;-76
2023/12/27 13:04:04;;;;;;;13.15;10.55;;;;;;;3.97;100.00;101662.50;12342377;23;20033;-76
2023/12/27 13:09:03;;;;;;;11.02;9.27;;;;;;;3.98;100.00;101659.53;12370261;23;20101;-77
2023/12/27 13:14:00;;;;;;;14.10;9.90;;;;;;;3.95;100.00;101648.41;12370709;23;20086;-77
2023/12/27 13:19:00;;;;;;;12.35;9.70;;;;;;;4.02;100.00;101626.56;12395251;23;20018;-77
2023/12/27 13:23:57;;;;;;;14.50;10.80;;;;;;;3.88;100.00;101624.22;12349781;23;20031;-77
2023/12/27 13:42:04;;;;;;;17.05;11.25;;;;;;;3.94;100.00;101577.22;12441594;23;20028;-76
2023/12/27 13:47:01;;;;;;;13.90;10.77;;;;;;;3.91;100.00;101561.47;12584287;23;20021;-77
2023/12/27 13:51:57;;;;;;;14.70;10.95;;;;;;;3.91;100.00;101556.06;12580614;23;20399;-76
2023/12/27 13:56:54;;;;;;;15.40;10.90;;;;;;;3.82;100.00;101562.19;12582079;23;20025;-76
2023/12/27 14:01:51;;;;;;;14.27;11.05;;;;;;;3.91;100.00;101560.66;12581031;23;20416;-77
2023/12/27 14:48:46;;;;;;;16.73;11.50;;;;;;;4.04;100.00;101494.50;12576572;23;20095;-76
2023/12/27 14:53:43;;;;;;;12.10;10.90;;;;;;;3.98;100.00;101480.13;12578898;23;20036;-77
2023/12/27 14:58:40;;;;;;;12.10;10.93;;;;;;;3.92;100.00;101460.31;12579029;23;20056;-76
2023/12/27 15:03:37;;;;;;;19.58;11.30;;;;;;;3.95;100.00;101443.56;12578052;23;20025;-77
2023/12/27 15:09:23;;;;;;;13.18;11.85;;;;;;;3.88;100.00;101437.53;12575392;23;20021;-74
2023/12/27 15:14:20;;;;;;;17.92;12.35;;;;;;;3.79;100.00;101412.03;12578798;23;20463;-76
2023/12/27 15:30:46;;;;;;;14.55;11.82;;;;;;;3.69;100.00;101314.53;12516843;23;20037;-76
2023/12/27 15:46:52;;;;;;;12.82;11.52;;;;;;;3.73;100.00;101299.44;12601934;23;20471;-76
2023/12/27 15:51:48;;;;;;;12.13;11.13;;;;;;;3.65;100.00;101286.41;12637896;23;20029;-76
2023/12/27 16:47:30;;;;;;;12.97;11.60;;;;;;;3.42;100.00;101118.03;12638367;22;20017;-72
2023/12/27 16:52:26;;;;;;;12.45;11.15;;;;;;;3.43;100.00;101106.16;12637379;23;20417;-74
2023/12/27 16:57:23;;;;;;;14.65;10.35;;;;;;;3.45;100.00;101079.66;12601406;23;20025;-76
2023/12/27 17:02:20;;;;;;;13.45;11.70;;;;;;;3.47;100.00;101065.91;12573574;23;20024;-76
2023/12/27 17:25:58;;;;;;;15.13;11.25;;;;;;;3.53;100.00;101013.50;12461383;23;20427;-77
2023/12/27 17:30:55;;;;;;;20.48;11.20;;;;;;;3.54;100.00;100994.28;12640061;23;20498;-75
2023/12/27 17:35:55;;;;;;;14.02;10.38;;;;;;;3.55;100.00;100971.59;12639418;23;20071;-76
2023/12/27 17:40:51;;;;;;;13.52;11.60;;;;;;;3.59;100.00;100959.16;12634215;23;20110;-76
2023/12/27 20:36:59;;;;;;;18.38;14.13;;;;;;;3.84;100.00;100560.00;12629548;23;20016;-75
2023/12/27 20:54:43;;;;;;;15.85;12.88;;;;;;;3.82;100.00;100472.91;12154060;23;20028;-72
2023/12/27 20:59:41;;;;;;;16.70;13.00;;;;;;;3.85;100.00;100458.84;12309915;23;20057;-72
2023/12/27 21:04:38;;;;;;;12.93;11.60;;;;;;;3.88;100.00;100442.06;12571735;23;20456;-71
2023/12/27 21:09:35;;;;;;;17.88;13.43;;;;;;;3.92;100.00;100470.19;12635010;23;20762;-69
2023/12/27 21:14:31;;;;;;;15.15;12.75;;;;;;;3.92;100.00;100459.34;12637123;23;20674;-72
2023/12/27 21:19:30;;;;;;;14.35;12.68;;;;;;;3.93;100.00;100455.56;12636086;23;20099;-72
2023/12/27 21:24:27;;;;;;;21.25;13.65;;;;;;;3.93;100.00;100436.63;12635523;23;20718;-70
2023/12/27 21:29:24;;;;;;;14.60;12.55;;;;;;;3.91;100.00;100457.72;12634713;23;20029;-72
2023/12/27 21:34:21;;;;;;;13.82;12.32;;;;;;;3.92;100.00;100437.72;12636779;23;20048;-72
2023/12/27 21:39:17;;;;;;;16.70;12.98;;;;;;;3.98;100.00;100420.34;12603481;23;20024;-70
2023/12/27 21:44:14;;;;;;;19.83;13.05;;;;;;;4.00;100.00;100429.00;12636440;23;20025;-70
2023/12/27 21:49:11;;;;;;;15.80;13.75;;;;;;;4.06;100.00;100410.00;12636258;23;20021;-71
2023/12/27 21:54:08;;;;;;;13.45;11.90;;;;;;;4.18;100.00;100394.25;12636198;23;20024;-70
2023/12/27 21:59:05;;;;;;;13.82;12.43;;;;;;;4.25;100.00;100359.56;12629498;23;20084;-71
2023/12/27 22:04:03;;;;;;;14.15;12.77;;;;;;;4.30;100.00;100367.63;12635374;23;20031;-70
2023/12/27 22:09:00;;;;;;;16.05;13.13;;;;;;;4.41;100.00;100377.28;12635029;23;20119;-70
2023/12/27 22:13:57;;;;;;;14.65;13.27;;;;;;;4.56;100.00;100386.34;12635657;23;20025;-72
2023/12/27 22:18:53;;;;;;;14.77;12.50;;;;;;;4.70;100.00;100392.69;12636044;23;20100;-72
2023/12/27 22:23:50;;;;;;;16.90;13.30;;;;;;;4.80;100.00;100376.34;12634840;23;20032;-72
2023/12/27 22:28:46;;;;;;;15.05;12.00;;;;;;;4.88;100.00;100372.19;12635552;23;20027;-70
2023/12/27 22:33:43;;;;;;;14.13;12.75;;;;;;;4.97;100.00;100381.31;12634981;23;20107;-71
2023/12/27 22:38:40;;;;;;;14.23;12.77;;;;;;;5.07;100.00;100385.78;12635766;23;20052;-71
2023/12/27 22:43:37;;;;;;;14.18;12.73;;;;;;;5.17;100.00;100385.66;12629783;23;20707;-70
2023/12/27 22:48:33;;;;;;;13.57;12.23;;;;;;;5.22;100.00;100377.47;12635588;22;20048;-71
2023/12/27 22:53:30;;;;;;;16.58;13.38;;;;;;;5.30;100.00;100353.53;12634640;23;20051;-72
2023/12/27 22:58:26;;;;;;;14.80;13.10;;;;;;;5.37;100.00;100362.13;12631595;23;20025;-68
2023/12/27 23:03:23;;;;;;;13.82;12.55;;;;;;;5.46;100.00;100366.59;12633447;23;20024;-69
2023/12/27 23:08:20;;;;;;;13.18;12.05;;;;;;;5.47;100.00;100359.25;12634385;23;20024;-70
2023/12/27 23:13:17;;;;;;;14.38;12.80;;;;;;;5.45;100.00;100358.75;12633750;23;20028;-70
2023/12/27 23:18:13;;;;;;;13.02;11.73;;;;;;;5.63;100.00;100386.97;12635255;23;20131;-69
2023/12/27 23:23:10;;;;;;;12.40;11.15;;;;;;;5.65;100.00;100374.72;12634633;23;20024;-69
2023/12/27 23:28:07;;;;;;;11.73;10.48;;;;;;;5.78;100.00;100372.38;12634389;23;20115;-69
2023/12/27 23:33:04;;;;;;;11.45;10.48;;;;;;;5.72;100.00;100381.72;12633773;23;20489;-71
2023/12/27 23:38:01;;;;;;;11.00;10.18;;;;;;;5.74;100.00;100379.50;12635623;23;20474;-71
2023/12/27 23:42:57;;;;;;;10.90;10.00;;;;;;;5.79;100.00;100390.28;12601495;23;20030;-71
2023/12/27 23:47:54;;;;;;;10.35;9.55;;;;;;;5.90;100.00;100380.91;12633759;23;20024;-70
2023/12/27 23:52:51;;;;;;;11.95;11.00;;;;;;;5.97;100.00;100413.13;12633775;23;20028;-72
2023/12/27 23:57:48;;;;;;;11.48;10.18;;;;;;;6.00;100.00;100421.47;12632945;23;20032;-72
